sensor_id;sensor_type;location;lat;lon;timestamp;P1;durP1;ratioP1;P2;durP2;ratioP2
16699;SDS011;8466;52.286;21.124;2022-12-18T00:00:41;39.27;;;24.20;;
16699;SDS011;8466;52.286;21.124;2022-12-18T00:03:12;41.03;;;23.23;;
16699;SDS011;8466;52.286;21.124;2022-12-18T00:05:48;42.77;;;25.97;;
16699;SDS011;8466;52.286;21.124;2022-12-18T00:08:17;41.70;;;23.63;;
16699;SDS011;8466;52.286;21.124;2022-12-18T00:10:47;40.70;;;24.87;;
16699;SDS011;8466;52.286;21.124;2022-12-18T00:13:15;41.07;;;25.27;;
16699;SDS011;8466;52.286;21.124;2022-12-18T00:15:44;37.33;;;22.90;;
16699;SDS011;8466;52.286;21.124;2022-12-18T00:18:15;40.73;;;23.97;;
16699;SDS011;8466;52.286;21.124;2022-12-18T00:20:46;41.93;;;24.87;;
16699;SDS011;8466;52.286;21.124;2022-12-18T00:23:14;41.97;;;25.50;;
16699;SDS011;8466;52.286;21.124;2022-12-18T00:25:43;41.00;;;25.63;;
16699;SDS011;8466;52.286;21.124;2022-12-18T00:28:12;38.83;;;25.10;;
16699;SDS011;8466;52.286;21.124;2022-12-18T00:30:40;40.20;;;25.53;;
16699;SDS011;8466;52.286;21.124;2022-12-18T00:33:09;42.70;;;26.43;;
16699;SDS011;8466;52.286;21.124;2022-12-18T00:35:39;45.63;;;26.03;;
16699;SDS011;8466;52.286;21.124;2022-12-18T00:38:08;40.10;;;24.93;;
16699;SDS011;8466;52.286;21.124;2022-12-18T00:40:37;43.43;;;24.77;;
16699;SDS011;8466;52.286;21.124;2022-12-18T00:43:06;37.50;;;23.63;;
16699;SDS011;8466;52.286;21.124;2022-12-18T00:45:35;43.33;;;24.73;;
16699;SDS011;8466;52.286;21.124;2022-12-18T00:48:05;39.90;;;24.93;;
16699;SDS011;8466;52.286;21.124;2022-12-18T00:50:34;33.63;;;22.00;;
16699;SDS011;8466;52.286;21.124;2022-12-18T00:53:05;36.03;;;23.37;;
16699;SDS011;8466;52.286;21.124;2022-12-18T00:55:34;37.27;;;23.00;;
16699;SDS011;8466;52.286;21.124;2022-12-18T00:58:02;36.40;;;22.93;;
16699;SDS011;8466;52.286;21.124;2022-12-18T01:00:31;35.17;;;21.40;;
16699;SDS011;8466;52.286;21.124;2022-12-18T01:03:05;35.43;;;21.20;;
16699;SDS011;8466;52.286;21.124;2022-12-18T01:05:38;34.53;;;21.90;;
16699;SDS011;8466;52.286;21.124;2022-12-18T01:08:08;38.83;;;22.57;;
16699;SDS011;8466;52.286;21.124;2022-12-18T01:10:39;36.83;;;22.80;;
16699;SDS011;8466;52.286;21.124;2022-12-18T01:13:09;34.33;;;21.73;;
16699;SDS011;8466;52.286;21.124;2022-12-18T01:15:37;30.67;;;20.20;;
16699;SDS011;8466;52.286;21.124;2022-12-18T01:18:06;36.33;;;22.93;;
16699;SDS011;8466;52.286;21.124;2022-12-18T01:20:35;36.57;;;21.77;;
16699;SDS011;8466;52.286;21.124;2022-12-18T01:23:15;34.67;;;20.57;;
16699;SDS011;8466;52.286;21.124;2022-12-18T01:25:46;31.13;;;20.13;;
16699;SDS011;8466;52.286;21.124;2022-12-18T01:28:15;32.00;;;21.07;;
16699;SDS011;8466;52.286;21.124;2022-12-18T01:30:43;31.83;;;20.63;;
16699;SDS011;8466;52.286;21.124;2022-12-18T01:33:13;34.07;;;20.77;;
16699;SDS011;8466;52.286;21.124;2022-12-18T01:35:41;32.33;;;19.97;;
16699;SDS011;8466;52.286;21.124;2022-12-18T01:38:12;33.77;;;20.43;;
16699;SDS011;8466;52.286;21.124;2022-12-18T01:40:40;31.97;;;19.47;;
16699;SDS011;8466;52.286;21.124;2022-12-18T01:43:09;29.47;;;19.27;;
16699;SDS011;8466;52.286;21.124;2022-12-18T01:45:38;28.17;;;18.50;;
16699;SDS011;8466;52.286;21.124;2022-12-18T01:48:10;31.17;;;19.80;;
16699;SDS011;8466;52.286;21.124;2022-12-18T01:50:50;29.93;;;18.90;;
16699;SDS011;8466;52.286;21.124;2022-12-18T01:53:23;31.37;;;19.63;;
16699;SDS011;8466;52.286;21.124;2022-12-18T01:55:53;34.47;;;19.97;;
16699;SDS011;8466;52.286;21.124;2022-12-18T01:58:24;31.07;;;20.10;;
16699;SDS011;8466;52.286;21.124;2022-12-18T02:01:00;36.27;;;20.70;;
16699;SDS011;8466;52.286;21.124;2022-12-18T02:03:29;31.60;;;20.27;;
16699;SDS011;8466;52.286;21.124;2022-12-18T02:06:12;39.07;;;22.60;;
16699;SDS011;8466;52.286;21.124;2022-12-18T02:09:00;34.50;;;21.67;;
16699;SDS011;8466;52.286;21.124;2022-12-18T02:11:52;33.23;;;20.53;;
16699;SDS011;8466;52.286;21.124;2022-12-18T02:14:31;33.00;;;21.23;;
16699;SDS011;8466;52.286;21.124;2022-12-18T02:17:10;32.93;;;21.03;;
16699;SDS011;8466;52.286;21.124;2022-12-18T02:19:47;32.27;;;20.90;;
16699;SDS011;8466;52.286;21.124;2022-12-18T02:22:29;33.00;;;20.27;;
16699;SDS011;8466;52.286;21.124;2022-12-18T02:25:15;29.20;;;18.53;;
16699;SDS011;8466;52.286;21.124;2022-12-18T02:27:56;29.83;;;19.47;;
16699;SDS011;8466;52.286;21.124;2022-12-18T02:30:29;29.43;;;18.57;;
16699;SDS011;8466;52.286;21.124;2022-12-18T02:33:00;31.27;;;20.20;;
16699;SDS011;8466;52.286;21.124;2022-12-18T02:35:31;28.53;;;19.23;;
16699;SDS011;8466;52.286;21.124;2022-12-18T02:38:02;30.33;;;20.50;;
16699;SDS011;8466;52.286;21.124;2022-12-18T02:40:32;36.53;;;20.67;;
16699;SDS011;8466;52.286;21.124;2022-12-18T02:43:06;36.97;;;20.07;;
16699;SDS011;8466;52.286;21.124;2022-12-18T02:45:36;33.87;;;21.27;;
16699;SDS011;8466;52.286;21.124;2022-12-18T02:48:14;31.10;;;18.97;;
16699;SDS011;8466;52.286;21.124;2022-12-18T02:50:45;30.27;;;18.73;;
16699;SDS011;8466;52.286;21.124;2022-12-18T02:53:23;27.45;;;20.38;;
16699;SDS011;8466;52.286;21.124;2022-12-18T02:55:58;28.93;;;22.77;;
16699;SDS011;8466;52.286;21.124;2022-12-18T02:58:34;23.47;;;16.07;;
16699;SDS011;8466;52.286;21.124;2022-12-18T03:01:13;25.00;;;17.57;;
16699;SDS011;8466;52.286;21.124;2022-12-18T03:03:47;25.87;;;17.27;;
16699;SDS011;8466;52.286;21.124;2022-12-18T03:06:25;25.67;;;16.23;;
16699;SDS011;8466;52.286;21.124;2022-12-18T03:08:58;32.03;;;18.50;;
16699;SDS011;8466;52.286;21.124;2022-12-18T03:11:30;29.80;;;18.33;;
16699;SDS011;8466;52.286;21.124;2022-12-18T03:14:20;35.07;;;19.50;;
16699;SDS011;8466;52.286;21.124;2022-12-18T03:16:52;25.97;;;17.07;;
16699;SDS011;8466;52.286;21.124;2022-12-18T03:19:25;25.80;;;16.83;;
16699;SDS011;8466;52.286;21.124;2022-12-18T03:21:56;26.63;;;16.40;;
16699;SDS011;8466;52.286;21.124;2022-12-18T03:24:27;30.87;;;17.80;;
16699;SDS011;8466;52.286;21.124;2022-12-18T03:27:00;28.27;;;17.20;;
16699;SDS011;8466;52.286;21.124;2022-12-18T03:29:34;26.20;;;16.70;;
16699;SDS011;8466;52.286;21.124;2022-12-18T03:32:07;28.60;;;17.07;;
16699;SDS011;8466;52.286;21.124;2022-12-18T03:34:39;25.03;;;16.00;;
16699;SDS011;8466;52.286;21.124;2022-12-18T03:37:10;23.63;;;14.10;;
16699;SDS011;8466;52.286;21.124;2022-12-18T03:39:39;22.20;;;15.13;;
16699;SDS011;8466;52.286;21.124;2022-12-18T03:42:08;22.07;;;13.97;;
16699;SDS011;8466;52.286;21.124;2022-12-18T03:44:46;23.70;;;16.00;;
16699;SDS011;8466;52.286;21.124;2022-12-18T03:47:21;25.10;;;16.53;;
16699;SDS011;8466;52.286;21.124;2022-12-18T03:49:56;24.10;;;15.17;;
16699;SDS011;8466;52.286;21.124;2022-12-18T03:52:38;23.70;;;15.33;;
16699;SDS011;8466;52.286;21.124;2022-12-18T03:55:10;20.90;;;14.23;;
16699;SDS011;8466;52.286;21.124;2022-12-18T03:57:39;22.17;;;15.63;;
16699;SDS011;8466;52.286;21.124;2022-12-18T04:00:12;25.77;;;15.23;;
16699;SDS011;8466;52.286;21.124;2022-12-18T04:02:44;23.33;;;15.23;;
16699;SDS011;8466;52.286;21.124;2022-12-18T04:05:17;25.60;;;15.17;;
16699;SDS011;8466;52.286;21.124;2022-12-18T04:07:47;26.70;;;15.37;;
16699;SDS011;8466;52.286;21.124;2022-12-18T04:10:17;27.87;;;16.57;;
16699;SDS011;8466;52.286;21.124;2022-12-18T04:12:46;27.33;;;17.27;;
16699;SDS011;8466;52.286;21.124;2022-12-18T04:15:17;32.77;;;19.17;;
16699;SDS011;8466;52.286;21.124;2022-12-18T04:17:47;30.00;;;18.13;;
16699;SDS011;8466;52.286;21.124;2022-12-18T04:20:17;28.57;;;17.50;;
16699;SDS011;8466;52.286;21.124;2022-12-18T04:22:46;25.80;;;15.77;;
16699;SDS011;8466;52.286;21.124;2022-12-18T04:25:15;25.13;;;15.50;;
16699;SDS011;8466;52.286;21.124;2022-12-18T04:27:44;24.13;;;15.50;;
16699;SDS011;8466;52.286;21.124;2022-12-18T04:30:12;25.00;;;15.37;;
16699;SDS011;8466;52.286;21.124;2022-12-18T04:32:42;22.33;;;15.77;;
16699;SDS011;8466;52.286;21.124;2022-12-18T04:35:17;21.57;;;14.33;;
16699;SDS011;8466;52.286;21.124;2022-12-18T04:37:55;20.13;;;13.83;;
16699;SDS011;8466;52.286;21.124;2022-12-18T04:40:25;22.57;;;14.70;;
16699;SDS011;8466;52.286;21.124;2022-12-18T04:42:54;22.80;;;14.93;;
16699;SDS011;8466;52.286;21.124;2022-12-18T04:45:22;25.17;;;13.87;;
16699;SDS011;8466;52.286;21.124;2022-12-18T04:47:53;21.67;;;14.00;;
16699;SDS011;8466;52.286;21.124;2022-12-18T04:50:21;22.20;;;13.77;;
16699;SDS011;8466;52.286;21.124;2022-12-18T04:52:50;21.37;;;14.10;;
16699;SDS011;8466;52.286;21.124;2022-12-18T04:55:19;20.60;;;14.93;;
16699;SDS011;8466;52.286;21.124;2022-12-18T04:57:48;20.17;;;13.10;;
16699;SDS011;8466;52.286;21.124;2022-12-18T05:00:17;21.33;;;14.00;;
16699;SDS011;8466;52.286;21.124;2022-12-18T05:02:46;19.57;;;12.63;;
16699;SDS011;8466;52.286;21.124;2022-12-18T05:05:17;21.80;;;13.00;;
16699;SDS011;8466;52.286;21.124;2022-12-18T05:07:45;20.67;;;12.07;;
16699;SDS011;8466;52.286;21.124;2022-12-18T05:10:14;18.70;;;12.77;;
16699;SDS011;8466;52.286;21.124;2022-12-18T05:12:44;19.70;;;12.57;;
16699;SDS011;8466;52.286;21.124;2022-12-18T05:15:29;20.97;;;13.67;;
16699;SDS011;8466;52.286;21.124;2022-12-18T05:17:58;19.33;;;12.90;;
16699;SDS011;8466;52.286;21.124;2022-12-18T05:20:29;19.40;;;13.07;;
16699;SDS011;8466;52.286;21.124;2022-12-18T05:22:58;21.90;;;13.30;;
16699;SDS011;8466;52.286;21.124;2022-12-18T05:25:27;20.87;;;13.30;;
16699;SDS011;8466;52.286;21.124;2022-12-18T05:27:56;23.47;;;14.37;;
16699;SDS011;8466;52.286;21.124;2022-12-18T05:30:25;20.87;;;13.73;;
16699;SDS011;8466;52.286;21.124;2022-12-18T05:32:54;20.53;;;13.73;;
16699;SDS011;8466;52.286;21.124;2022-12-18T05:35:23;22.60;;;14.03;;
16699;SDS011;8466;52.286;21.124;2022-12-18T05:37:53;22.87;;;14.30;;
16699;SDS011;8466;52.286;21.124;2022-12-18T05:40:21;19.10;;;13.30;;
16699;SDS011;8466;52.286;21.124;2022-12-18T05:42:50;23.67;;;14.67;;
16699;SDS011;8466;52.286;21.124;2022-12-18T05:45:19;21.03;;;13.17;;
16699;SDS011;8466;52.286;21.124;2022-12-18T05:47:48;22.13;;;13.67;;
16699;SDS011;8466;52.286;21.124;2022-12-18T05:50:17;22.60;;;14.00;;
16699;SDS011;8466;52.286;21.124;2022-12-18T05:52:45;21.27;;;12.97;;
16699;SDS011;8466;52.286;21.124;2022-12-18T05:55:16;21.20;;;13.97;;
16699;SDS011;8466;52.286;21.124;2022-12-18T05:57:44;21.92;;;13.50;;
16699;SDS011;8466;52.286;21.124;2022-12-18T06:00:13;20.73;;;14.07;;
16699;SDS011;8466;52.286;21.124;2022-12-18T06:02:46;21.77;;;14.57;;
16699;SDS011;8466;52.286;21.124;2022-12-18T06:05:15;22.87;;;14.47;;
16699;SDS011;8466;52.286;21.124;2022-12-18T06:07:45;22.97;;;13.93;;
16699;SDS011;8466;52.286;21.124;2022-12-18T06:10:15;22.20;;;13.90;;
16699;SDS011;8466;52.286;21.124;2022-12-18T06:12:44;24.53;;;15.67;;
16699;SDS011;8466;52.286;21.124;2022-12-18T06:15:13;24.83;;;16.80;;
16699;SDS011;8466;52.286;21.124;2022-12-18T06:17:42;28.13;;;17.20;;
16699;SDS011;8466;52.286;21.124;2022-12-18T06:20:11;25.60;;;15.37;;
16699;SDS011;8466;52.286;21.124;2022-12-18T06:22:40;26.03;;;16.90;;
16699;SDS011;8466;52.286;21.124;2022-12-18T06:25:09;28.17;;;16.13;;
16699;SDS011;8466;52.286;21.124;2022-12-18T06:27:40;27.37;;;16.90;;
16699;SDS011;8466;52.286;21.124;2022-12-18T06:30:09;31.63;;;17.10;;
16699;SDS011;8466;52.286;21.124;2022-12-18T06:32:40;31.00;;;17.77;;
16699;SDS011;8466;52.286;21.124;2022-12-18T06:35:09;30.83;;;18.10;;
16699;SDS011;8466;52.286;21.124;2022-12-18T06:37:38;28.77;;;17.33;;
16699;SDS011;8466;52.286;21.124;2022-12-18T06:40:07;30.87;;;18.70;;
16699;SDS011;8466;52.286;21.124;2022-12-18T06:42:36;32.47;;;19.23;;
16699;SDS011;8466;52.286;21.124;2022-12-18T06:45:07;33.67;;;19.70;;
16699;SDS011;8466;52.286;21.124;2022-12-18T06:47:37;31.60;;;17.73;;
16699;SDS011;8466;52.286;21.124;2022-12-18T06:50:06;28.17;;;17.77;;
16699;SDS011;8466;52.286;21.124;2022-12-18T06:52:35;34.77;;;18.70;;
16699;SDS011;8466;52.286;21.124;2022-12-18T06:55:05;33.93;;;18.37;;
16699;SDS011;8466;52.286;21.124;2022-12-18T06:57:37;31.20;;;18.20;;
16699;SDS011;8466;52.286;21.124;2022-12-18T07:00:07;33.43;;;20.53;;
16699;SDS011;8466;52.286;21.124;2022-12-18T07:02:37;33.23;;;19.00;;
16699;SDS011;8466;52.286;21.124;2022-12-18T07:05:06;33.77;;;18.60;;
16699;SDS011;8466;52.286;21.124;2022-12-18T07:07:36;41.37;;;21.53;;
16699;SDS011;8466;52.286;21.124;2022-12-18T07:10:05;35.97;;;20.53;;
16699;SDS011;8466;52.286;21.124;2022-12-18T07:12:34;39.47;;;20.23;;
16699;SDS011;8466;52.286;21.124;2022-12-18T07:15:03;33.53;;;19.37;;
16699;SDS011;8466;52.286;21.124;2022-12-18T07:17:34;36.50;;;20.70;;
16699;SDS011;8466;52.286;21.124;2022-12-18T07:20:03;33.47;;;20.00;;
16699;SDS011;8466;52.286;21.124;2022-12-18T07:22:32;35.63;;;19.50;;
16699;SDS011;8466;52.286;21.124;2022-12-18T07:25:01;34.20;;;20.63;;
16699;SDS011;8466;52.286;21.124;2022-12-18T07:27:29;39.23;;;21.60;;
16699;SDS011;8466;52.286;21.124;2022-12-18T07:29:58;36.40;;;20.33;;
16699;SDS011;8466;52.286;21.124;2022-12-18T07:32:27;42.77;;;22.50;;
16699;SDS011;8466;52.286;21.124;2022-12-18T07:34:57;39.95;;;22.15;;
16699;SDS011;8466;52.286;21.124;2022-12-18T07:37:26;55.85;;;38.55;;
16699;SDS011;8466;52.286;21.124;2022-12-18T07:39:55;59.67;;;35.83;;
16699;SDS011;8466;52.286;21.124;2022-12-18T07:42:23;44.73;;;25.40;;
16699;SDS011;8466;52.286;21.124;2022-12-18T07:45:03;41.03;;;22.10;;
16699;SDS011;8466;52.286;21.124;2022-12-18T07:47:33;39.70;;;21.80;;
16699;SDS011;8466;52.286;21.124;2022-12-18T07:50:05;43.83;;;23.20;;
16699;SDS011;8466;52.286;21.124;2022-12-18T07:52:34;45.53;;;24.20;;
16699;SDS011;8466;52.286;21.124;2022-12-18T07:55:03;55.27;;;37.80;;
16699;SDS011;8466;52.286;21.124;2022-12-18T07:57:32;44.40;;;23.87;;
16699;SDS011;8466;52.286;21.124;2022-12-18T08:00:21;45.77;;;23.23;;
16699;SDS011;8466;52.286;21.124;2022-12-18T08:02:50;45.23;;;22.93;;
16699;SDS011;8466;52.286;21.124;2022-12-18T08:05:21;45.57;;;24.40;;
16699;SDS011;8466;52.286;21.124;2022-12-18T08:07:50;43.63;;;23.27;;
16699;SDS011;8466;52.286;21.124;2022-12-18T08:10:23;49.83;;;25.13;;
16699;SDS011;8466;52.286;21.124;2022-12-18T08:12:54;55.97;;;25.97;;
16699;SDS011;8466;52.286;21.124;2022-12-18T08:15:30;52.20;;;26.47;;
16699;SDS011;8466;52.286;21.124;2022-12-18T08:17:58;55.83;;;30.52;;
16699;SDS011;8466;52.286;21.124;2022-12-18T08:20:28;58.67;;;29.57;;
16699;SDS011;8466;52.286;21.124;2022-12-18T08:22:57;57.43;;;29.53;;
16699;SDS011;8466;52.286;21.124;2022-12-18T08:25:26;54.37;;;28.37;;
16699;SDS011;8466;52.286;21.124;2022-12-18T08:27:55;56.50;;;27.70;;
16699;SDS011;8466;52.286;21.124;2022-12-18T08:30:24;59.20;;;28.10;;
16699;SDS011;8466;52.286;21.124;2022-12-18T08:32:53;56.07;;;30.17;;
16699;SDS011;8466;52.286;21.124;2022-12-18T08:35:21;52.00;;;27.27;;
16699;SDS011;8466;52.286;21.124;2022-12-18T08:37:51;55.57;;;28.07;;
16699;SDS011;8466;52.286;21.124;2022-12-18T08:40:21;55.50;;;28.97;;
16699;SDS011;8466;52.286;21.124;2022-12-18T08:42:49;74.60;;;37.50;;
16699;SDS011;8466;52.286;21.124;2022-12-18T08:45:35;66.20;;;32.83;;
16699;SDS011;8466;52.286;21.124;2022-12-18T08:48:04;61.33;;;31.43;;
16699;SDS011;8466;52.286;21.124;2022-12-18T08:50:33;59.73;;;30.30;;
16699;SDS011;8466;52.286;21.124;2022-12-18T08:53:03;57.17;;;29.60;;
16699;SDS011;8466;52.286;21.124;2022-12-18T08:55:34;60.10;;;29.73;;
16699;SDS011;8466;52.286;21.124;2022-12-18T08:58:03;57.23;;;27.97;;
16699;SDS011;8466;52.286;21.124;2022-12-18T09:00:32;57.70;;;29.77;;
16699;SDS011;8466;52.286;21.124;2022-12-18T09:03:00;64.37;;;30.77;;
16699;SDS011;8466;52.286;21.124;2022-12-18T09:05:30;64.10;;;30.63;;
16699;SDS011;8466;52.286;21.124;2022-12-18T09:07:58;62.07;;;32.03;;
16699;SDS011;8466;52.286;21.124;2022-12-18T09:10:29;65.90;;;34.50;;
16699;SDS011;8466;52.286;21.124;2022-12-18T09:12:58;57.47;;;30.53;;
16699;SDS011;8466;52.286;21.124;2022-12-18T09:15:27;52.50;;;30.30;;
16699;SDS011;8466;52.286;21.124;2022-12-18T09:17:56;57.27;;;31.33;;
16699;SDS011;8466;52.286;21.124;2022-12-18T09:20:24;60.43;;;31.53;;
16699;SDS011;8466;52.286;21.124;2022-12-18T09:22:54;54.73;;;30.63;;
16699;SDS011;8466;52.286;21.124;2022-12-18T09:25:24;65.70;;;31.97;;
16699;SDS011;8466;52.286;21.124;2022-12-18T09:27:59;58.00;;;31.80;;
16699;SDS011;8466;52.286;21.124;2022-12-18T09:30:28;54.30;;;30.53;;
16699;SDS011;8466;52.286;21.124;2022-12-18T09:33:00;49.63;;;28.43;;
16699;SDS011;8466;52.286;21.124;2022-12-18T09:35:29;51.40;;;29.20;;
16699;SDS011;8466;52.286;21.124;2022-12-18T09:37:58;51.93;;;28.30;;
16699;SDS011;8466;52.286;21.124;2022-12-18T09:40:28;50.73;;;27.80;;
16699;SDS011;8466;52.286;21.124;2022-12-18T09:43:04;45.23;;;25.80;;
16699;SDS011;8466;52.286;21.124;2022-12-18T09:45:37;42.83;;;24.47;;
16699;SDS011;8466;52.286;21.124;2022-12-18T09:48:10;44.63;;;24.77;;
16699;SDS011;8466;52.286;21.124;2022-12-18T09:50:45;48.57;;;26.57;;
16699;SDS011;8466;52.286;21.124;2022-12-18T09:53:15;50.70;;;28.20;;
16699;SDS011;8466;52.286;21.124;2022-12-18T09:55:49;55.70;;;32.00;;
16699;SDS011;8466;52.286;21.124;2022-12-18T09:58:24;56.30;;;32.03;;
16699;SDS011;8466;52.286;21.124;2022-12-18T10:00:57;50.13;;;28.37;;
16699;SDS011;8466;52.286;21.124;2022-12-18T10:03:26;47.67;;;28.07;;
16699;SDS011;8466;52.286;21.124;2022-12-18T10:05:59;47.87;;;29.63;;
16699;SDS011;8466;52.286;21.124;2022-12-18T10:08:37;48.53;;;29.63;;
16699;SDS011;8466;52.286;21.124;2022-12-18T10:11:16;47.63;;;28.27;;
16699;SDS011;8466;52.286;21.124;2022-12-18T10:13:57;45.20;;;26.17;;
16699;SDS011;8466;52.286;21.124;2022-12-18T10:16:35;42.90;;;25.87;;
16699;SDS011;8466;52.286;21.124;2022-12-18T10:19:16;47.00;;;29.60;;
16699;SDS011;8466;52.286;21.124;2022-12-18T10:21:58;48.37;;;28.30;;
16699;SDS011;8466;52.286;21.124;2022-12-18T10:24:37;46.43;;;31.50;;
16699;SDS011;8466;52.286;21.124;2022-12-18T10:27:12;53.33;;;34.50;;
16699;SDS011;8466;52.286;21.124;2022-12-18T10:29:44;48.93;;;30.17;;
16699;SDS011;8466;52.286;21.124;2022-12-18T10:32:14;49.20;;;32.30;;
16699;SDS011;8466;52.286;21.124;2022-12-18T10:34:45;44.90;;;26.97;;
16699;SDS011;8466;52.286;21.124;2022-12-18T10:37:16;46.43;;;34.33;;
16699;SDS011;8466;52.286;21.124;2022-12-18T10:40:04;44.60;;;28.63;;
16699;SDS011;8466;52.286;21.124;2022-12-18T10:42:43;41.97;;;26.83;;
16699;SDS011;8466;52.286;21.124;2022-12-18T10:45:15;50.77;;;31.63;;
16699;SDS011;8466;52.286;21.124;2022-12-18T10:47:45;62.23;;;37.47;;
16699;SDS011;8466;52.286;21.124;2022-12-18T10:50:20;55.72;;;38.90;;
16699;SDS011;8466;52.286;21.124;2022-12-18T10:53:16;54.67;;;40.03;;
16699;SDS011;8466;52.286;21.124;2022-12-18T10:55:48;49.50;;;33.77;;
16699;SDS011;8466;52.286;21.124;2022-12-18T10:58:20;51.87;;;34.17;;
16699;SDS011;8466;52.286;21.124;2022-12-18T11:01:07;46.57;;;33.23;;
16699;SDS011;8466;52.286;21.124;2022-12-18T11:03:39;47.10;;;32.03;;
16699;SDS011;8466;52.286;21.124;2022-12-18T11:06:09;52.87;;;37.37;;
16699;SDS011;8466;52.286;21.124;2022-12-18T11:08:40;52.93;;;39.63;;
16699;SDS011;8466;52.286;21.124;2022-12-18T11:11:18;48.47;;;37.87;;
16699;SDS011;8466;52.286;21.124;2022-12-18T11:13:51;46.37;;;29.17;;
16699;SDS011;8466;52.286;21.124;2022-12-18T11:16:30;56.87;;;37.33;;
16699;SDS011;8466;52.286;21.124;2022-12-18T11:21:56;40.23;;;27.57;;
16699;SDS011;8466;52.286;21.124;2022-12-18T11:24:27;44.33;;;34.07;;
16699;SDS011;8466;52.286;21.124;2022-12-18T11:26:58;46.67;;;35.63;;
16699;SDS011;8466;52.286;21.124;2022-12-18T11:29:35;41.80;;;30.95;;
16699;SDS011;8466;52.286;21.124;2022-12-18T11:32:25;48.87;;;39.87;;
16699;SDS011;8466;52.286;21.124;2022-12-18T11:34:59;44.23;;;36.40;;
16699;SDS011;8466;52.286;21.124;2022-12-18T11:37:31;45.87;;;36.53;;
16699;SDS011;8466;52.286;21.124;2022-12-18T11:40:02;47.80;;;37.37;;
16699;SDS011;8466;52.286;21.124;2022-12-18T11:42:37;44.80;;;32.53;;
16699;SDS011;8466;52.286;21.124;2022-12-18T11:45:21;48.70;;;33.43;;
16699;SDS011;8466;52.286;21.124;2022-12-18T11:48:03;49.07;;;34.57;;
16699;SDS011;8466;52.286;21.124;2022-12-18T11:50:42;44.83;;;33.07;;
16699;SDS011;8466;52.286;21.124;2022-12-18T11:53:17;50.17;;;34.33;;
16699;SDS011;8466;52.286;21.124;2022-12-18T11:55:53;46.03;;;33.30;;
16699;SDS011;8466;52.286;21.124;2022-12-18T11:58:33;47.77;;;32.90;;
16699;SDS011;8466;52.286;21.124;2022-12-18T12:01:16;45.07;;;31.93;;
16699;SDS011;8466;52.286;21.124;2022-12-18T12:07:01;47.70;;;32.90;;
16699;SDS011;8466;52.286;21.124;2022-12-18T12:09:40;48.83;;;31.80;;
16699;SDS011;8466;52.286;21.124;2022-12-18T12:12:22;45.67;;;30.00;;
16699;SDS011;8466;52.286;21.124;2022-12-18T12:15:17;50.30;;;32.30;;
16699;SDS011;8466;52.286;21.124;2022-12-18T12:17:56;50.17;;;34.40;;
16699;SDS011;8466;52.286;21.124;2022-12-18T12:20:42;51.03;;;33.47;;
16699;SDS011;8466;52.286;21.124;2022-12-18T12:23:21;58.20;;;37.43;;
16699;SDS011;8466;52.286;21.124;2022-12-18T12:25:58;59.07;;;39.27;;
16699;SDS011;8466;52.286;21.124;2022-12-18T12:28:42;66.03;;;42.07;;
16699;SDS011;8466;52.286;21.124;2022-12-18T12:31:54;66.33;;;44.43;;
16699;SDS011;8466;52.286;21.124;2022-12-18T12:34:32;62.40;;;41.50;;
16699;SDS011;8466;52.286;21.124;2022-12-18T12:37:15;63.47;;;40.83;;
16699;SDS011;8466;52.286;21.124;2022-12-18T12:39:52;51.17;;;31.80;;
16699;SDS011;8466;52.286;21.124;2022-12-18T12:42:26;53.77;;;33.90;;
16699;SDS011;8466;52.286;21.124;2022-12-18T12:45:20;55.53;;;35.40;;
16699;SDS011;8466;52.286;21.124;2022-12-18T12:47:54;56.53;;;38.03;;
16699;SDS011;8466;52.286;21.124;2022-12-18T12:50:25;53.97;;;35.63;;
16699;SDS011;8466;52.286;21.124;2022-12-18T12:52:56;59.93;;;36.17;;
16699;SDS011;8466;52.286;21.124;2022-12-18T12:55:28;56.50;;;35.53;;
16699;SDS011;8466;52.286;21.124;2022-12-18T12:57:59;55.20;;;33.33;;
16699;SDS011;8466;52.286;21.124;2022-12-18T13:00:41;50.03;;;33.03;;
16699;SDS011;8466;52.286;21.124;2022-12-18T13:03:21;55.80;;;38.73;;
16699;SDS011;8466;52.286;21.124;2022-12-18T13:05:59;51.57;;;37.27;;
16699;SDS011;8466;52.286;21.124;2022-12-18T13:08:52;53.37;;;33.53;;
16699;SDS011;8466;52.286;21.124;2022-12-18T13:11:29;53.50;;;32.97;;
16699;SDS011;8466;52.286;21.124;2022-12-18T13:14:30;57.67;;;35.73;;
16699;SDS011;8466;52.286;21.124;2022-12-18T13:20:09;51.90;;;31.33;;
16699;SDS011;8466;52.286;21.124;2022-12-18T13:23:00;55.77;;;31.67;;
16699;SDS011;8466;52.286;21.124;2022-12-18T13:25:34;55.93;;;33.23;;
16699;SDS011;8466;52.286;21.124;2022-12-18T13:28:06;58.60;;;34.30;;
16699;SDS011;8466;52.286;21.124;2022-12-18T13:30:42;55.37;;;34.30;;
16699;SDS011;8466;52.286;21.124;2022-12-18T13:33:38;60.50;;;35.23;;
16699;SDS011;8466;52.286;21.124;2022-12-18T13:36:31;59.45;;;41.72;;
16699;SDS011;8466;52.286;21.124;2022-12-18T13:39:11;66.00;;;46.87;;
16699;SDS011;8466;52.286;21.124;2022-12-18T13:45:37;62.63;;;42.57;;
16699;SDS011;8466;52.286;21.124;2022-12-18T13:48:15;79.40;;;53.90;;
16699;SDS011;8466;52.286;21.124;2022-12-18T13:50:52;70.67;;;45.33;;
16699;SDS011;8466;52.286;21.124;2022-12-18T13:53:26;64.93;;;45.20;;
16699;SDS011;8466;52.286;21.124;2022-12-18T13:55:58;69.33;;;43.47;;
16699;SDS011;8466;52.286;21.124;2022-12-18T13:58:27;61.83;;;40.10;;
16699;SDS011;8466;52.286;21.124;2022-12-18T14:00:57;65.63;;;42.00;;
16699;SDS011;8466;52.286;21.124;2022-12-18T14:03:29;69.90;;;44.77;;
16699;SDS011;8466;52.286;21.124;2022-12-18T14:06:02;86.10;;;60.28;;
16699;SDS011;8466;52.286;21.124;2022-12-18T14:08:36;74.90;;;48.70;;
16699;SDS011;8466;52.286;21.124;2022-12-18T14:11:11;68.23;;;45.03;;
16699;SDS011;8466;52.286;21.124;2022-12-18T14:13:48;65.20;;;39.50;;
16699;SDS011;8466;52.286;21.124;2022-12-18T14:16:19;65.47;;;42.17;;
16699;SDS011;8466;52.286;21.124;2022-12-18T14:18:49;72.37;;;40.50;;
16699;SDS011;8466;52.286;21.124;2022-12-18T14:21:30;65.80;;;43.47;;
16699;SDS011;8466;52.286;21.124;2022-12-18T14:24:05;67.47;;;46.40;;
16699;SDS011;8466;52.286;21.124;2022-12-18T14:26:42;70.50;;;44.00;;
16699;SDS011;8466;52.286;21.124;2022-12-18T14:29:24;65.57;;;40.87;;
16699;SDS011;8466;52.286;21.124;2022-12-18T14:32:05;67.97;;;39.57;;
16699;SDS011;8466;52.286;21.124;2022-12-18T14:34:45;58.30;;;34.57;;
16699;SDS011;8466;52.286;21.124;2022-12-18T14:37:16;58.03;;;35.47;;
16699;SDS011;8466;52.286;21.124;2022-12-18T14:39:57;61.03;;;34.80;;
16699;SDS011;8466;52.286;21.124;2022-12-18T14:42:36;62.30;;;35.70;;
16699;SDS011;8466;52.286;21.124;2022-12-18T14:48:13;64.33;;;35.77;;
16699;SDS011;8466;52.286;21.124;2022-12-18T14:50:55;67.53;;;40.13;;
16699;SDS011;8466;52.286;21.124;2022-12-18T14:53:34;66.47;;;38.80;;
16699;SDS011;8466;52.286;21.124;2022-12-18T14:56:12;124.57;;;65.57;;
16699;SDS011;8466;52.286;21.124;2022-12-18T14:58:44;67.83;;;39.43;;
16699;SDS011;8466;52.286;21.124;2022-12-18T15:01:21;72.87;;;42.27;;
16699;SDS011;8466;52.286;21.124;2022-12-18T15:03:58;60.83;;;36.50;;
16699;SDS011;8466;52.286;21.124;2022-12-18T15:06:30;66.37;;;38.43;;
16699;SDS011;8466;52.286;21.124;2022-12-18T15:09:02;74.37;;;41.23;;
16699;SDS011;8466;52.286;21.124;2022-12-18T15:11:34;85.67;;;47.53;;